Time,TemperatureF,DewpointF,PressureIn,WindDirection,WindDirectionDegrees,WindSpeedMPH,WindSpeedGustMPH,Humidity,HourlyPrecipIn,Conditions,Clouds,dailyrainin,SoftwareType,DateUTC
2013-04-12 00:01:00,36.1,33.8,29.49,SW,225,11.0,11.0,91,0.00,,,0.21,meteohub,2013-04-12 05:01:00,
2013-04-12 00:07:00,36.0,33.6,29.48,SW,225,10.0,15.0,91,0.00,,,0.21,meteohub,2013-04-12 05:07:00,
2013-04-12 00:12:00,36.0,33.6,29.48,SW,225,10.0,15.0,91,0.00,,,0.21,meteohub,2013-04-12 05:12:00,
2013-04-12 00:17:00,35.8,33.4,29.48,SW,225,12.0,15.0,91,0.00,,,0.21,meteohub,2013-04-12 05:17:00,
2013-04-12 00:22:00,35.8,33.4,29.48,South,180,13.0,13.0,91,0.00,,,0.21,meteohub,2013-04-12 05:22:00,
2013-04-12 00:27:00,35.6,33.3,29.48,SW,225,6.0,14.0,91,0.00,,,0.21,meteohub,2013-04-12 05:27:00,
2013-04-12 00:32:00,35.6,33.3,29.48,SW,225,8.0,14.0,91,0.00,,,0.21,meteohub,2013-04-12 05:32:00,
2013-04-12 00:37:00,35.6,33.3,29.48,SW,225,8.0,14.0,91,0.00,,,0.21,meteohub,2013-04-12 05:37:00,
2013-04-12 00:42:00,35.6,33.3,29.48,SW,225,8.0,12.0,91,0.00,,,0.21,meteohub,2013-04-12 05:42:00,
2013-04-12 00:47:00,35.4,33.3,29.48,NW,315,11.0,14.0,92,0.00,,,0.21,meteohub,2013-04-12 05:47:00,
2013-04-12 00:52:00,35.4,33.3,29.47,SW,225,13.0,14.0,92,0.00,,,0.21,meteohub,2013-04-12 05:52:00,
2013-04-12 00:57:00,35.4,33.3,29.48,SW,225,14.0,14.0,92,0.01,,,0.22,meteohub,2013-04-12 05:57:00,
2013-04-12 01:02:00,35.2,33.1,29.48,SW,225,11.0,14.0,92,0.01,,,0.22,meteohub,2013-04-12 06:02:00,
2013-04-12 01:07:00,35.2,33.1,29.48,SW,225,14.0,14.0,92,0.01,,,0.22,meteohub,2013-04-12 06:07:00,
2013-04-12 01:12:00,35.1,32.9,29.48,SW,225,14.0,17.0,92,0.01,,,0.22,meteohub,2013-04-12 06:12:00,
2013-04-12 01:17:00,34.9,32.5,29.48,SW,225,8.0,17.0,91,0.01,,,0.22,meteohub,2013-04-12 06:17:00,
2013-04-12 01:22:00,34.7,32.4,29.48,SW,225,11.0,17.0,91,0.01,,,0.22,meteohub,2013-04-12 06:22:00,
2013-04-12 01:27:00,34.5,32.2,29.48,WSW,248,14.0,17.0,91,0.02,,,0.24,meteohub,2013-04-12 06:27:00,
2013-04-12 01:32:00,34.3,32.0,29.48,West,270,8.0,17.0,91,0.02,,,0.24,meteohub,2013-04-12 06:32:00,
2013-04-12 01:37:00,34.3,32.0,29.47,SW,225,10.0,15.0,91,0.04,,,0.25,meteohub,2013-04-12 06:37:00,
2013-04-12 01:42:00,34.3,32.0,29.47,SW,225,5.0,15.0,91,0.04,,,0.25,meteohub,2013-04-12 06:42:00,
2013-04-12 01:47:00,34.3,32.2,29.47,SW,225,8.0,14.0,92,0.04,,,0.25,meteohub,2013-04-12 06:47:00,
2013-04-12 01:52:00,34.5,32.4,29.47,SW,225,8.0,10.0,92,0.04,,,0.25,meteohub,2013-04-12 06:52:00,
2013-04-12 01:57:00,34.5,32.4,29.47,West,270,11.0,12.0,92,0.02,,,0.25,meteohub,2013-04-12 06:57:00,
2013-04-12 02:02:00,34.5,32.4,29.47,SW,225,8.0,12.0,92,0.02,,,0.25,meteohub,2013-04-12 07:02:00,
2013-04-12 02:07:00,34.5,32.4,29.47,SW,225,8.0,13.0,92,0.02,,,0.25,meteohub,2013-04-12 07:07:00,
2013-04-12 02:12:00,34.5,32.4,29.47,NW,315,14.0,14.0,92,0.02,,,0.25,meteohub,2013-04-12 07:12:00,
2013-04-12 02:18:00,34.5,32.4,29.47,West,270,9.0,14.0,92,0.02,,,0.25,meteohub,2013-04-12 07:18:00,
2013-04-12 02:23:00,34.5,32.4,29.46,SW,225,11.0,14.0,92,0.02,,,0.25,meteohub,2013-04-12 07:23:00,
2013-04-12 02:28:00,34.5,32.4,29.46,SW,225,14.0,14.0,92,0.01,,,0.25,meteohub,2013-04-12 07:28:00,
2013-04-12 02:33:00,34.3,32.2,29.46,SW,225,11.0,11.0,92,0.01,,,0.25,meteohub,2013-04-12 07:33:00,
2013-04-12 02:38:00,34.3,32.2,29.47,SW,225,8.0,15.0,92,0.00,,,0.25,meteohub,2013-04-12 07:38:00,
2013-04-12 02:44:00,34.2,32.0,29.46,SW,225,9.0,15.0,92,0.01,,,0.26,meteohub,2013-04-12 07:44:00,
2013-04-12 02:49:00,34.2,32.0,29.46,SW,225,9.0,15.0,92,0.01,,,0.26,meteohub,2013-04-12 07:49:00,
2013-04-12 02:54:00,34.2,32.0,29.46,West,270,8.0,13.0,92,0.01,,,0.26,meteohub,2013-04-12 07:54:00,
2013-04-12 02:59:00,34.0,31.8,29.46,SW,225,8.0,13.0,92,0.01,,,0.26,meteohub,2013-04-12 07:59:00,
2013-04-12 03:04:00,34.0,31.8,29.46,West,270,11.0,11.0,92,0.01,,,0.26,meteohub,2013-04-12 08:04:00,
2013-04-12 03:09:00,34.0,31.8,29.46,SW,225,11.0,11.0,92,0.01,,,0.26,meteohub,2013-04-12 08:09:00,
2013-04-12 03:14:00,34.0,31.8,29.46,SW,225,11.0,11.0,92,0.01,,,0.26,meteohub,2013-04-12 08:14:00,
2013-04-12 03:19:00,34.0,31.8,29.46,SW,225,9.0,12.0,92,0.01,,,0.26,meteohub,2013-04-12 08:19:00,
2013-04-12 03:24:00,34.2,32.0,29.45,SW,225,8.0,12.0,92,0.01,,,0.26,meteohub,2013-04-12 08:24:00,
2013-04-12 03:29:00,34.2,32.0,29.45,SW,225,7.0,13.0,92,0.01,,,0.26,meteohub,2013-04-12 08:29:00,
2013-04-12 03:34:00,34.2,32.0,29.45,SW,225,8.0,13.0,92,0.01,,,0.26,meteohub,2013-04-12 08:34:00,
2013-04-12 03:39:00,34.2,32.0,29.45,SW,225,9.0,13.0,92,0.00,,,0.26,meteohub,2013-04-12 08:39:00,
2013-04-12 03:45:00,34.2,32.0,29.45,SW,225,7.0,11.0,92,0.00,,,0.26,meteohub,2013-04-12 08:45:00,
2013-04-12 03:50:00,34.2,32.0,29.45,SW,225,8.0,14.0,92,0.00,,,0.26,meteohub,2013-04-12 08:50:00,
2013-04-12 03:55:00,34.2,32.0,29.45,SW,225,8.0,14.0,92,0.00,,,0.26,meteohub,2013-04-12 08:55:00,
2013-04-12 04:00:00,34.2,32.0,29.45,SW,225,12.0,12.0,92,0.00,,,0.27,meteohub,2013-04-12 09:00:00,
2013-04-12 04:05:00,34.2,32.0,29.45,SW,225,8.0,11.0,92,0.01,,,0.27,meteohub,2013-04-12 09:05:00,
2013-04-12 04:10:00,34.0,31.8,29.45,SW,225,11.0,12.0,92,0.01,,,0.27,meteohub,2013-04-12 09:10:00,
2013-04-12 04:15:00,34.2,32.0,29.45,WSW,248,7.0,12.0,92,0.01,,,0.27,meteohub,2013-04-12 09:15:00,
2013-04-12 04:20:00,34.2,32.0,29.45,South,180,11.0,11.0,92,0.01,,,0.27,meteohub,2013-04-12 09:20:00,
2013-04-12 04:25:00,34.0,31.8,29.45,West,270,8.0,11.0,92,0.01,,,0.27,meteohub,2013-04-12 09:25:00,
2013-04-12 04:30:00,34.0,31.8,29.45,SW,225,8.0,11.0,92,0.01,,,0.27,meteohub,2013-04-12 09:30:00,
2013-04-12 04:35:00,34.0,31.8,29.45,SW,225,8.0,11.0,92,0.01,,,0.27,meteohub,2013-04-12 09:35:00,
2013-04-12 04:40:00,34.0,31.8,29.45,SW,225,7.0,11.0,92,0.01,,,0.27,meteohub,2013-04-12 09:40:00,
2013-04-12 04:46:00,34.0,31.8,29.45,SW,225,11.0,11.0,92,0.01,,,0.27,meteohub,2013-04-12 09:46:00,
2013-04-12 04:51:00,34.0,31.8,29.44,SW,225,9.0,13.0,92,0.01,,,0.27,meteohub,2013-04-12 09:51:00,
2013-04-12 04:56:00,34.0,31.8,29.45,SW,225,9.0,13.0,92,0.01,,,0.27,meteohub,2013-04-12 09:56:00,
2013-04-12 05:01:00,34.0,31.8,29.44,SW,225,6.0,11.0,92,0.00,,,0.27,meteohub,2013-04-12 10:01:00,
2013-04-12 05:06:00,34.0,31.8,29.44,SW,225,7.0,11.0,92,0.00,,,0.27,meteohub,2013-04-12 10:06:00,
2013-04-12 05:12:00,34.0,31.8,29.45,SW,225,10.0,11.0,92,0.00,,,0.27,meteohub,2013-04-12 10:12:00,
2013-04-12 05:17:00,34.0,31.8,29.44,NW,315,8.0,10.0,92,0.00,,,0.27,meteohub,2013-04-12 10:17:00,
2013-04-12 05:22:00,34.0,31.8,29.45,SW,225,7.0,11.0,92,0.00,,,0.27,meteohub,2013-04-12 10:22:00,
2013-04-12 05:27:00,34.2,32.0,29.44,SW,225,8.0,11.0,92,0.00,,,0.27,meteohub,2013-04-12 10:27:00,
2013-04-12 05:32:00,34.2,32.0,29.44,WSW,248,10.0,11.0,92,0.00,,,0.27,meteohub,2013-04-12 10:32:00,
2013-04-12 05:37:00,34.2,32.0,29.44,SW,225,11.0,14.0,92,0.00,,,0.27,meteohub,2013-04-12 10:37:00,
2013-04-12 05:42:00,34.2,32.0,29.44,West,270,8.0,14.0,92,0.00,,,0.27,meteohub,2013-04-12 10:42:00,
2013-04-12 05:47:00,34.2,32.0,29.45,NW,315,9.0,14.0,92,0.00,,,0.27,meteohub,2013-04-12 10:47:00,
2013-04-12 05:52:00,34.2,32.0,29.44,West,270,9.0,11.0,92,0.00,,,0.27,meteohub,2013-04-12 10:52:00,
2013-04-12 05:57:00,34.2,32.0,29.44,WSW,248,8.0,11.0,92,0.00,,,0.27,meteohub,2013-04-12 10:57:00,
2013-04-12 06:03:00,34.2,32.0,29.45,SW,225,10.0,11.0,92,0.00,,,0.27,meteohub,2013-04-12 11:03:00,
2013-04-12 06:08:00,34.2,32.0,29.45,SW,225,8.0,11.0,92,0.00,,,0.27,meteohub,2013-04-12 11:08:00,
2013-04-12 06:13:00,34.2,32.0,29.44,WSW,248,8.0,11.0,92,0.00,,,0.27,meteohub,2013-04-12 11:13:00,
2013-04-12 06:18:00,34.2,32.0,29.44,WSW,248,8.0,11.0,92,0.00,,,0.27,meteohub,2013-04-12 11:18:00,
2013-04-12 06:23:00,34.3,32.2,29.44,SW,225,8.0,11.0,92,0.00,,,0.27,meteohub,2013-04-12 11:23:00,
2013-04-12 06:28:00,34.3,32.2,29.44,WSW,248,7.0,10.0,92,0.00,,,0.27,meteohub,2013-04-12 11:28:00,
2013-04-12 06:34:00,34.3,32.2,29.45,SW,225,10.0,11.0,92,0.00,,,0.27,meteohub,2013-04-12 11:34:00,
2013-04-12 06:39:00,34.3,32.2,29.45,SW,225,9.0,11.0,92,0.00,,,0.27,meteohub,2013-04-12 11:39:00,
2013-04-12 06:44:00,34.3,32.2,29.45,West,270,9.0,11.0,92,0.00,,,0.27,meteohub,2013-04-12 11:44:00,
2013-04-12 06:49:00,34.3,32.2,29.45,West,270,10.0,10.0,92,0.00,,,0.27,meteohub,2013-04-12 11:49:00,
2013-04-12 06:54:00,34.5,32.4,29.45,WSW,248,10.0,10.0,92,0.00,,,0.27,meteohub,2013-04-12 11:54:00,
2013-04-12 06:59:00,34.5,32.4,29.45,West,270,4.0,11.0,92,0.00,,,0.27,meteohub,2013-04-12 11:59:00,
2013-04-12 07:04:00,34.5,32.4,29.45,NW,315,9.0,11.0,92,0.00,,,0.27,meteohub,2013-04-12 12:04:00,
2013-04-12 07:10:00,34.5,32.4,29.46,West,270,8.0,11.0,92,0.00,,,0.27,meteohub,2013-04-12 12:10:00,
2013-04-12 07:15:00,34.7,32.5,29.46,SW,225,8.0,14.0,92,0.00,,,0.27,meteohub,2013-04-12 12:15:00,
2013-04-12 07:20:00,34.7,32.5,29.46,NW,315,8.0,14.0,92,0.00,,,0.27,meteohub,2013-04-12 12:20:00,
2013-04-12 07:25:00,34.7,32.5,29.46,SW,225,8.0,11.0,92,0.00,,,0.27,meteohub,2013-04-12 12:25:00,
2013-04-12 07:31:00,34.9,32.7,29.46,SW,225,10.0,11.0,92,0.00,,,0.27,meteohub,2013-04-12 12:31:00,
2013-04-12 07:36:00,34.9,32.7,29.46,SW,225,8.0,11.0,92,0.00,,,0.27,meteohub,2013-04-12 12:36:00,
2013-04-12 07:41:00,34.9,32.7,29.46,West,270,4.0,11.0,92,0.00,,,0.27,meteohub,2013-04-12 12:41:00,
2013-04-12 07:46:00,35.1,32.9,29.47,SW,225,8.0,11.0,92,0.00,,,0.27,meteohub,2013-04-12 12:46:00,
2013-04-12 07:51:00,35.1,32.9,29.47,West,270,7.0,10.0,92,0.00,,,0.27,meteohub,2013-04-12 12:51:00,
2013-04-12 07:56:00,35.2,33.4,29.46,West,270,8.0,9.0,93,0.00,,,0.27,meteohub,2013-04-12 12:56:00,
2013-04-12 08:01:00,35.2,33.4,29.46,SW,225,7.0,10.0,93,0.00,,,0.27,meteohub,2013-04-12 13:01:00,
2013-04-12 08:06:00,35.4,33.6,29.46,West,270,12.0,12.0,93,0.00,,,0.27,meteohub,2013-04-12 13:06:00,
2013-04-12 08:11:00,35.6,33.4,29.47,SW,225,6.0,12.0,92,0.00,,,0.27,meteohub,2013-04-12 13:11:00,
2013-04-12 08:17:00,35.6,33.4,29.47,West,270,6.0,12.0,92,0.00,,,0.27,meteohub,2013-04-12 13:17:00,
2013-04-12 08:22:00,35.8,33.6,29.47,West,270,8.0,12.0,92,0.00,,,0.27,meteohub,2013-04-12 13:22:00,
2013-04-12 08:27:00,35.8,33.6,29.47,SW,225,9.0,10.0,92,0.00,,,0.27,meteohub,2013-04-12 13:27:00,
2013-04-12 08:32:00,36.0,33.8,29.47,SW,225,7.0,11.0,92,0.00,,,0.27,meteohub,2013-04-12 13:32:00,
2013-04-12 08:37:00,36.1,34.0,29.48,NW,315,10.0,11.0,92,0.00,,,0.27,meteohub,2013-04-12 13:37:00,
2013-04-12 08:42:00,36.1,34.0,29.48,NW,315,8.0,11.0,92,0.00,,,0.27,meteohub,2013-04-12 13:42:00,
2013-04-12 08:47:00,36.3,34.2,29.48,SW,225,8.0,11.0,92,0.00,,,0.27,meteohub,2013-04-12 13:47:00,
2013-04-12 08:53:00,36.5,34.3,29.48,West,270,9.0,13.0,92,0.00,,,0.27,meteohub,2013-04-12 13:53:00,
2013-04-12 08:58:00,36.5,34.3,29.48,West,270,8.0,13.0,92,0.00,,,0.27,meteohub,2013-04-12 13:58:00,
2013-04-12 09:03:00,36.9,34.5,29.48,West,270,8.0,13.0,91,0.00,,,0.27,meteohub,2013-04-12 14:03:00,
2013-04-12 09:08:00,37.0,34.7,29.48,SW,225,6.0,11.0,91,0.00,,,0.27,meteohub,2013-04-12 14:08:00,
2013-04-12 09:13:00,37.0,34.7,29.48,West,270,8.0,10.0,91,0.00,,,0.27,meteohub,2013-04-12 14:13:00,
2013-04-12 09:18:00,37.4,36.1,29.48,West,270,6.0,12.0,95,0.00,,,0.27,meteohub,2013-04-12 14:18:00,
2013-04-12 09:23:00,37.6,36.3,29.48,NW,315,8.0,12.0,95,0.00,,,0.27,meteohub,2013-04-12 14:23:00,
2013-04-12 09:28:00,37.4,36.1,29.48,West,270,11.0,12.0,95,0.00,,,0.27,meteohub,2013-04-12 14:28:00,
2013-04-12 09:33:00,37.4,35.8,29.49,SW,225,8.0,12.0,94,0.00,,,0.27,meteohub,2013-04-12 14:33:00,
2013-04-12 09:39:00,37.4,35.6,29.49,West,270,9.0,12.0,93,0.00,,,0.27,meteohub,2013-04-12 14:39:00,
2013-04-12 09:44:00,37.4,35.6,29.49,West,270,11.0,14.0,93,0.00,,,0.27,meteohub,2013-04-12 14:44:00,
2013-04-12 09:49:00,37.4,35.6,29.49,SW,225,8.0,14.0,93,0.00,,,0.27,meteohub,2013-04-12 14:49:00,
2013-04-12 09:55:00,37.4,35.6,29.49,West,270,16.0,16.0,93,0.00,,,0.27,meteohub,2013-04-12 14:55:00,
2013-04-12 10:00:00,37.4,35.2,29.50,West,270,8.0,12.0,92,0.00,,,0.27,meteohub,2013-04-12 15:00:00,
2013-04-12 10:05:00,37.2,34.0,29.50,SW,225,10.0,16.0,88,0.00,,,0.27,meteohub,2013-04-12 15:05:00,
2013-04-12 10:10:00,37.4,35.6,29.50,NW,315,8.0,16.0,93,0.00,,,0.27,meteohub,2013-04-12 15:10:00,
2013-04-12 10:15:00,37.4,35.6,29.50,NW,315,6.0,11.0,93,0.00,,,0.27,meteohub,2013-04-12 15:15:00,
2013-04-12 10:20:00,37.8,36.0,29.51,West,270,7.0,11.0,93,0.00,,,0.27,meteohub,2013-04-12 15:20:00,
2013-04-12 10:25:00,37.8,36.0,29.51,West,270,11.0,11.0,93,0.00,,,0.27,meteohub,2013-04-12 15:25:00,
2013-04-12 10:30:00,37.8,36.0,29.51,West,270,10.0,11.0,93,0.00,,,0.27,meteohub,2013-04-12 15:30:00,
2013-04-12 10:36:00,37.8,36.0,29.51,SW,225,10.0,13.0,93,0.00,,,0.27,meteohub,2013-04-12 15:36:00,
2013-04-12 10:41:00,37.9,36.1,29.51,NW,315,12.0,13.0,93,0.00,,,0.27,meteohub,2013-04-12 15:41:00,
2013-04-12 10:46:00,38.1,36.3,29.51,West,270,6.0,13.0,93,0.00,,,0.27,meteohub,2013-04-12 15:46:00,
2013-04-12 10:51:00,38.1,36.3,29.52,West,270,11.0,12.0,93,0.00,,,0.27,meteohub,2013-04-12 15:51:00,
2013-04-12 10:57:00,38.7,37.0,29.52,NW,315,9.0,12.0,94,0.00,,,0.27,meteohub,2013-04-12 15:57:00,
2013-04-12 11:03:00,39.6,37.9,29.52,West,270,8.0,11.0,94,0.00,,,0.27,meteohub,2013-04-12 16:03:00,
2013-04-12 11:08:00,39.9,38.1,29.52,NW,315,6.0,11.0,93,0.00,,,0.27,meteohub,2013-04-12 16:08:00,
2013-04-12 11:13:00,39.7,37.6,29.52,NW,315,7.0,11.0,92,0.00,,,0.27,meteohub,2013-04-12 16:13:00,
2013-04-12 11:18:00,39.9,37.6,29.52,NW,315,8.0,11.0,91,0.00,,,0.27,meteohub,2013-04-12 16:18:00,
2013-04-12 11:23:00,39.6,36.5,29.52,West,270,8.0,11.0,89,0.00,,,0.27,meteohub,2013-04-12 16:23:00,
2013-04-12 11:28:00,39.6,36.5,29.52,West,270,8.0,10.0,89,0.00,,,0.27,meteohub,2013-04-12 16:28:00,
2013-04-12 11:33:00,39.6,36.3,29.52,SW,225,8.0,9.0,88,0.00,,,0.27,meteohub,2013-04-12 16:33:00,
2013-04-12 11:38:00,39.6,36.0,29.52,West,270,6.0,11.0,87,0.00,,,0.27,meteohub,2013-04-12 16:38:00,
2013-04-12 11:44:00,40.1,36.5,29.52,West,270,6.0,13.0,87,0.00,,,0.27,meteohub,2013-04-12 16:44:00,
2013-04-12 11:49:00,40.1,36.3,29.53,West,270,9.0,13.0,86,0.00,,,0.27,meteohub,2013-04-12 16:49:00,
2013-04-12 11:54:00,40.3,36.5,29.53,West,270,7.0,13.0,86,0.00,,,0.27,meteohub,2013-04-12 16:54:00,
2013-04-12 11:59:00,40.3,36.1,29.53,NW,315,12.0,12.0,85,0.00,,,0.27,meteohub,2013-04-12 16:59:00,
2013-04-12 12:05:00,40.5,35.8,29.53,NW,315,10.0,11.0,83,0.00,,,0.27,meteohub,2013-04-12 17:05:00,
2013-04-12 12:10:00,40.3,34.5,29.54,West,270,7.0,12.0,80,0.00,,,0.27,meteohub,2013-04-12 17:10:00,
2013-04-12 12:15:00,40.1,34.5,29.54,NW,315,5.0,12.0,80,0.00,,,0.27,meteohub,2013-04-12 17:15:00,
2013-04-12 12:20:00,39.7,34.2,29.55,North,0,8.0,17.0,80,0.00,,,0.27,meteohub,2013-04-12 17:20:00,
2013-04-12 12:25:00,39.6,33.6,29.55,West,270,13.0,17.0,79,0.00,,,0.27,meteohub,2013-04-12 17:25:00,
2013-04-12 12:31:00,39.7,33.8,29.55,NW,315,8.0,16.0,79,0.00,,,0.27,meteohub,2013-04-12 17:31:00,
2013-04-12 12:36:00,39.7,34.2,29.55,West,270,7.0,16.0,80,0.00,,,0.27,meteohub,2013-04-12 17:36:00,
2013-04-12 12:42:00,39.6,34.0,29.55,SW,225,10.0,16.0,80,0.00,,,0.27,meteohub,2013-04-12 17:42:00,
2013-04-12 12:47:00,39.4,33.8,29.56,West,270,8.0,13.0,80,0.00,,,0.27,meteohub,2013-04-12 17:47:00,
2013-04-12 12:52:00,39.2,33.6,29.57,West,270,8.0,13.0,80,0.00,,,0.27,meteohub,2013-04-12 17:52:00,
2013-04-12 12:57:00,39.0,33.6,29.57,West,270,4.0,17.0,81,0.00,,,0.27,meteohub,2013-04-12 17:57:00,
2013-04-12 13:03:00,38.7,33.3,29.57,NW,315,12.0,17.0,81,0.00,,,0.27,meteohub,2013-04-12 18:03:00,
2013-04-12 13:09:00,38.1,33.1,29.57,West,270,9.0,17.0,82,0.00,,,0.27,meteohub,2013-04-12 18:09:00,
2013-04-12 13:14:00,38.1,33.4,29.58,NW,315,3.0,17.0,83,0.00,,,0.27,meteohub,2013-04-12 18:14:00,
2013-04-12 13:20:00,37.9,33.3,29.58,NW,315,9.0,17.0,83,0.00,,,0.27,meteohub,2013-04-12 18:20:00,
2013-04-12 13:25:00,37.8,32.5,29.58,NW,315,11.0,16.0,81,0.00,,,0.27,meteohub,2013-04-12 18:25:00,
2013-04-12 14:26:00,37.0,29.8,29.62,West,270,11.0,16.0,75,0.00,,,0.27,meteohub,2013-04-12 19:26:00,
2013-04-12 14:27:00,37.0,29.8,29.62,West,270,13.0,16.0,75,0.00,,,0.27,meteohub,2013-04-12 19:27:00,
2013-04-12 14:30:00,37.0,29.8,29.62,SW,225,10.0,16.0,75,0.00,,,0.27,meteohub,2013-04-12 19:30:00,
2013-04-12 14:33:00,37.0,29.8,29.62,West,270,13.0,16.0,75,0.00,,,0.27,meteohub,2013-04-12 19:33:00,
2013-04-12 14:39:00,37.0,29.5,29.62,West,270,9.0,20.0,74,0.00,,,0.27,meteohub,2013-04-12 19:39:00,
2013-04-12 14:44:00,36.9,29.3,29.63,West,270,4.0,20.0,74,0.00,,,0.27,meteohub,2013-04-12 19:44:00,
2013-04-12 14:49:00,36.9,28.9,29.62,West,270,4.0,20.0,73,0.00,,,0.27,meteohub,2013-04-12 19:49:00,
2013-04-12 14:54:00,36.9,29.3,29.63,SW,225,8.0,18.0,74,0.00,,,0.27,meteohub,2013-04-12 19:54:00,
2013-04-12 15:00:00,36.7,29.1,29.63,West,270,11.0,18.0,74,0.00,,,0.27,meteohub,2013-04-12 20:00:00,
2013-04-12 15:05:00,36.5,28.8,29.63,West,270,21.0,21.0,73,0.00,,,0.27,meteohub,2013-04-12 20:05:00,
2013-04-12 15:10:00,36.5,28.8,29.64,West,270,11.0,21.0,73,0.00,,,0.27,meteohub,2013-04-12 20:10:00,
2013-04-12 15:15:00,36.5,28.8,29.64,West,270,19.0,21.0,73,0.00,,,0.27,meteohub,2013-04-12 20:15:00,
2013-04-12 15:20:00,36.7,28.8,29.64,NW,315,15.0,19.0,73,0.00,,,0.27,meteohub,2013-04-12 20:20:00,
2013-04-12 15:25:00,36.7,28.6,29.64,NW,315,12.0,23.0,72,0.00,,,0.27,meteohub,2013-04-12 20:25:00,
2013-04-12 15:31:00,36.7,28.2,29.64,West,270,15.0,23.0,71,0.00,,,0.27,meteohub,2013-04-12 20:31:00,
2013-04-12 15:37:00,36.5,28.0,29.64,NW,315,11.0,23.0,71,0.00,,,0.27,meteohub,2013-04-12 20:37:00,
2013-04-12 15:42:00,36.5,28.0,29.65,North,0,16.0,21.0,71,0.00,,,0.27,meteohub,2013-04-12 20:42:00,
2013-04-12 15:48:00,36.3,27.5,29.65,West,270,14.0,17.0,70,0.00,,,0.27,meteohub,2013-04-12 20:48:00,
2013-04-12 15:53:00,36.5,27.7,29.65,NW,315,15.0,17.0,70,0.00,,,0.27,meteohub,2013-04-12 20:53:00,
2013-04-12 15:58:00,36.5,27.7,29.65,SW,225,9.0,17.0,70,0.00,,,0.27,meteohub,2013-04-12 20:58:00,
2013-04-12 16:03:00,36.7,27.5,29.65,West,270,16.0,18.0,69,0.00,,,0.27,meteohub,2013-04-12 21:03:00,
2013-04-12 16:08:00,36.9,27.7,29.65,West,270,13.0,20.0,69,0.00,,,0.27,meteohub,2013-04-12 21:08:00,
2013-04-12 16:13:00,37.0,27.9,29.64,SW,225,12.0,20.0,69,0.00,,,0.27,meteohub,2013-04-12 21:13:00,
2013-04-12 16:18:00,36.9,27.0,29.65,NW,315,17.0,20.0,67,0.00,,,0.27,meteohub,2013-04-12 21:18:00,
2013-04-12 16:23:00,36.5,26.6,29.65,NW,315,10.0,19.0,67,0.00,,,0.27,meteohub,2013-04-12 21:23:00,
2013-04-12 16:28:00,36.7,26.8,29.65,West,270,10.0,19.0,67,0.00,,,0.27,meteohub,2013-04-12 21:28:00,
2013-04-12 16:33:00,36.9,27.3,29.65,West,270,10.0,19.0,68,0.00,,,0.27,meteohub,2013-04-12 21:33:00,
2013-04-12 16:38:00,37.0,27.5,29.66,NW,315,20.0,20.0,68,0.00,,,0.27,meteohub,2013-04-12 21:38:00,
2013-04-12 16:44:00,37.0,27.1,29.66,NW,315,17.0,20.0,67,0.00,,,0.27,meteohub,2013-04-12 21:44:00,
2013-04-12 16:49:00,36.7,26.4,29.67,West,270,13.0,20.0,66,0.00,,,0.27,meteohub,2013-04-12 21:49:00,
2013-04-12 16:54:00,36.7,26.8,29.67,North,0,14.0,20.0,67,0.00,,,0.27,meteohub,2013-04-12 21:54:00,
2013-04-12 16:59:00,36.5,26.6,29.67,NNW,338,16.0,19.0,67,0.00,,,0.27,meteohub,2013-04-12 21:59:00,
2013-04-12 17:04:00,36.3,26.8,29.68,SW,225,11.0,19.0,68,0.00,,,0.27,meteohub,2013-04-12 22:04:00,
2013-04-12 17:09:00,36.3,26.8,29.68,West,270,17.0,20.0,68,0.00,,,0.27,meteohub,2013-04-12 22:09:00,
2013-04-12 17:14:00,36.3,26.4,29.68,NW,315,15.0,20.0,67,0.00,,,0.27,meteohub,2013-04-12 22:14:00,
2013-04-12 17:19:00,36.5,27.0,29.68,West,270,15.0,18.0,68,0.00,,,0.27,meteohub,2013-04-12 22:19:00,
2013-04-12 17:25:00,36.5,26.6,29.68,West,270,17.0,19.0,67,0.00,,,0.27,meteohub,2013-04-12 22:25:00,
2013-04-12 17:30:00,36.7,27.1,29.68,WNW,293,13.0,19.0,68,0.00,,,0.27,meteohub,2013-04-12 22:30:00,
2013-04-12 17:35:00,36.7,27.1,29.68,NW,315,8.0,17.0,68,0.00,,,0.27,meteohub,2013-04-12 22:35:00,
2013-04-12 17:40:00,36.7,27.1,29.68,West,270,11.0,16.0,68,0.00,,,0.27,meteohub,2013-04-12 22:40:00,
2013-04-12 17:45:00,36.7,27.1,29.68,NW,315,13.0,16.0,68,0.00,,,0.27,meteohub,2013-04-12 22:45:00,
2013-04-12 17:50:00,36.5,26.6,29.68,West,270,9.0,16.0,67,0.00,,,0.27,meteohub,2013-04-12 22:50:00,
2013-04-12 17:55:00,36.5,27.0,29.69,SW,225,23.0,23.0,68,0.00,,,0.27,meteohub,2013-04-12 22:55:00,
2013-04-12 18:00:00,36.5,26.2,29.69,West,270,10.0,23.0,66,0.01,,,0.28,meteohub,2013-04-12 23:00:00,
2013-04-12 18:05:00,36.3,26.1,29.69,West,270,17.0,23.0,66,0.01,,,0.28,meteohub,2013-04-12 23:05:00,
2013-04-12 18:11:00,36.3,26.4,29.68,West,270,15.0,23.0,67,0.01,,,0.28,meteohub,2013-04-12 23:11:00,
2013-04-12 18:16:00,36.5,26.6,29.69,NW,315,11.0,19.0,67,0.01,,,0.28,meteohub,2013-04-12 23:16:00,
2013-04-12 18:21:00,36.3,26.4,29.68,West,270,12.0,17.0,67,0.01,,,0.28,meteohub,2013-04-12 23:21:00,
2013-04-12 18:27:00,36.3,26.8,29.69,West,270,17.0,17.0,68,0.01,,,0.28,meteohub,2013-04-12 23:27:00,
2013-04-12 18:32:00,36.1,26.6,29.69,West,270,12.0,17.0,68,0.01,,,0.28,meteohub,2013-04-12 23:32:00,
2013-04-12 18:37:00,36.1,26.6,29.69,West,270,12.0,17.0,68,0.01,,,0.28,meteohub,2013-04-12 23:37:00,
2013-04-12 18:42:00,36.1,26.6,29.69,NW,315,11.0,17.0,68,0.01,,,0.28,meteohub,2013-04-12 23:42:00,
2013-04-12 18:47:00,36.1,27.0,29.69,NW,315,9.0,18.0,69,0.01,,,0.28,meteohub,2013-04-12 23:47:00,
2013-04-12 18:52:00,36.0,26.4,29.69,SW,225,12.0,18.0,68,0.01,,,0.28,meteohub,2013-04-12 23:52:00,
2013-04-12 18:57:00,35.8,26.2,29.69,West,270,12.0,18.0,68,0.01,,,0.28,meteohub,2013-04-12 23:57:00,
2013-04-12 19:03:00,35.8,26.2,29.69,West,270,11.0,18.0,68,0.00,,,0.28,meteohub,2013-04-13 00:03:00,
2013-04-12 19:08:00,35.8,26.2,29.69,NW,315,8.0,15.0,68,0.00,,,0.00,meteohub,2013-04-13 00:08:00,
2013-04-12 19:13:00,35.6,26.1,29.70,NW,315,17.0,17.0,68,0.00,,,0.00,meteohub,2013-04-13 00:13:00,
2013-04-12 19:18:00,35.6,26.1,29.70,WSW,248,7.0,17.0,68,0.00,,,0.00,meteohub,2013-04-13 00:18:00,
2013-04-12 19:23:00,35.4,26.2,29.69,West,270,13.0,17.0,69,0.00,,,0.00,meteohub,2013-04-13 00:23:00,
2013-04-12 19:28:00,35.4,26.2,29.70,West,270,14.0,17.0,69,0.00,,,0.00,meteohub,2013-04-13 00:28:00,
2013-04-12 19:33:00,35.4,26.2,29.70,NW,315,12.0,16.0,69,0.00,,,0.00,meteohub,2013-04-13 00:33:00,
2013-04-12 19:38:00,35.4,26.6,29.70,West,270,8.0,20.0,70,0.00,,,0.00,meteohub,2013-04-13 00:38:00,
2013-04-12 19:43:00,35.2,26.4,29.70,West,270,14.0,20.0,70,0.00,,,0.00,meteohub,2013-04-13 00:43:00,
2013-04-12 19:48:00,35.2,26.4,29.70,West,270,18.0,18.0,70,0.00,,,0.00,meteohub,2013-04-13 00:48:00,
2013-04-12 19:53:00,35.2,26.4,29.70,NW,315,7.0,18.0,70,0.00,,,0.00,meteohub,2013-04-13 00:53:00,
2013-04-12 19:58:00,35.2,26.4,29.70,West,270,9.0,18.0,70,0.00,,,0.00,meteohub,2013-04-13 00:58:00,
2013-04-12 20:03:00,35.2,26.8,29.71,West,270,11.0,18.0,71,0.00,,,0.00,meteohub,2013-04-13 01:03:00,
2013-04-12 20:09:00,35.2,26.8,29.71,NW,315,12.0,15.0,71,0.00,,,0.00,meteohub,2013-04-13 01:09:00,
2013-04-12 20:14:00,35.2,26.8,29.71,North,0,14.0,15.0,71,0.00,,,0.00,meteohub,2013-04-13 01:14:00,
2013-04-12 20:19:00,35.2,26.4,29.71,West,270,11.0,15.0,70,0.00,,,0.00,meteohub,2013-04-13 01:19:00,
2013-04-12 20:24:00,35.2,26.4,29.71,SW,225,13.0,18.0,70,0.00,,,0.00,meteohub,2013-04-13 01:24:00,
2013-04-12 20:29:00,35.1,26.6,29.71,North,0,12.0,18.0,71,0.00,,,0.00,meteohub,2013-04-13 01:29:00,
2013-04-12 20:34:00,35.1,26.6,29.71,SW,225,13.0,18.0,71,0.00,,,0.00,meteohub,2013-04-13 01:34:00,
2013-04-12 20:40:00,35.1,26.6,29.71,NW,315,15.0,18.0,71,0.00,,,0.00,meteohub,2013-04-13 01:40:00,
2013-04-12 20:45:00,35.1,26.6,29.72,West,270,8.0,18.0,71,0.00,,,0.00,meteohub,2013-04-13 01:45:00,
2013-04-12 20:50:00,35.1,26.6,29.72,NW,315,8.0,18.0,71,0.00,,,0.00,meteohub,2013-04-13 01:50:00,
2013-04-12 20:55:00,34.9,26.4,29.72,NW,315,11.0,16.0,71,0.00,,,0.00,meteohub,2013-04-13 01:55:00,
2013-04-12 21:00:00,34.9,26.8,29.73,WNW,293,10.0,17.0,72,0.00,,,0.00,meteohub,2013-04-13 02:00:00,
2013-04-12 21:05:00,34.9,26.8,29.72,West,270,20.0,20.0,72,0.00,,,0.00,meteohub,2013-04-13 02:05:00,
2013-04-12 21:10:00,34.9,26.4,29.72,NW,315,19.0,20.0,71,0.00,,,0.00,meteohub,2013-04-13 02:10:00,
2013-04-12 21:15:00,34.7,26.2,29.72,West,270,14.0,20.0,71,0.00,,,0.00,meteohub,2013-04-13 02:15:00,
2013-04-12 21:20:00,34.7,26.2,29.73,West,270,8.0,20.0,71,0.00,,,0.00,meteohub,2013-04-13 02:20:00,
2013-04-12 21:26:00,34.7,26.6,29.73,WNW,293,15.0,19.0,72,0.00,,,0.00,meteohub,2013-04-13 02:26:00,
2013-04-12 21:31:00,34.7,26.6,29.73,West,270,9.0,17.0,72,0.00,,,0.00,meteohub,2013-04-13 02:31:00,
2013-04-12 21:36:00,34.5,26.4,29.73,NW,315,9.0,15.0,72,0.00,,,0.00,meteohub,2013-04-13 02:36:00,
2013-04-12 21:41:00,34.5,26.4,29.73,NW,315,16.0,17.0,72,0.00,,,0.00,meteohub,2013-04-13 02:41:00,
2013-04-12 21:46:00,34.5,26.4,29.74,West,270,17.0,17.0,72,0.00,,,0.00,meteohub,2013-04-13 02:46:00,
2013-04-12 21:51:00,34.5,26.4,29.73,West,270,10.0,17.0,72,0.00,,,0.00,meteohub,2013-04-13 02:51:00,
2013-04-12 21:56:00,34.3,26.2,29.74,West,270,15.0,17.0,72,0.00,,,0.00,meteohub,2013-04-13 02:56:00,
2013-04-12 22:02:00,34.3,26.2,29.74,West,270,8.0,17.0,72,0.00,,,0.00,meteohub,2013-04-13 03:02:00,
2013-04-12 22:07:00,34.3,26.2,29.74,West,270,8.0,17.0,72,0.00,,,0.00,meteohub,2013-04-13 03:07:00,
2013-04-12 22:12:00,34.2,26.4,29.74,West,270,7.0,18.0,73,0.00,,,0.00,meteohub,2013-04-13 03:12:00,
2013-04-12 22:17:00,34.2,26.4,29.74,NNW,338,14.0,18.0,73,0.00,,,0.00,meteohub,2013-04-13 03:17:00,
2013-04-12 22:23:00,34.2,26.1,29.74,West,270,9.0,18.0,72,0.00,,,0.00,meteohub,2013-04-13 03:23:00,
2013-04-12 22:28:00,34.2,26.1,29.74,West,270,8.0,14.0,72,0.00,,,0.00,meteohub,2013-04-13 03:28:00,
2013-04-12 22:33:00,34.2,26.1,29.74,SW,225,9.0,14.0,72,0.00,,,0.00,meteohub,2013-04-13 03:33:00,
2013-04-12 22:38:00,34.0,25.9,29.74,SW,225,15.0,15.0,72,0.00,,,0.00,meteohub,2013-04-13 03:38:00,
2013-04-12 22:43:00,34.0,25.9,29.74,West,270,8.0,15.0,72,0.00,,,0.00,meteohub,2013-04-13 03:43:00,
2013-04-12 22:48:00,34.0,25.9,29.74,West,270,9.0,15.0,72,0.00,,,0.00,meteohub,2013-04-13 03:48:00,
2013-04-12 22:54:00,34.0,25.9,29.74,NW,315,8.0,17.0,72,0.00,,,0.00,meteohub,2013-04-13 03:54:00,
2013-04-12 22:59:00,34.0,25.9,29.73,West,270,6.0,17.0,72,0.00,,,0.00,meteohub,2013-04-13 03:59:00,
2013-04-12 23:00:00,34.0,25.9,29.74,West,270,11.0,17.0,72,0.00,,,0.00,meteohub,2013-04-13 04:00:00,
2013-04-12 23:01:00,34.0,25.9,29.73,West,270,8.0,17.0,72,0.00,,,0.00,meteohub,2013-04-13 04:01:00,
2013-04-12 23:02:00,34.0,25.9,29.73,West,270,11.0,17.0,72,0.00,,,0.00,meteohub,2013-04-13 04:02:00,
2013-04-12 23:07:00,34.0,25.9,29.73,SW,225,5.0,16.0,72,0.00,,,0.00,meteohub,2013-04-13 04:07:00,
2013-04-12 23:12:00,33.8,25.7,29.73,SW,225,12.0,16.0,72,0.00,,,0.00,meteohub,2013-04-13 04:12:00,
2013-04-12 23:18:00,33.8,25.7,29.73,SW,225,11.0,12.0,72,0.00,,,0.00,meteohub,2013-04-13 04:18:00,
2013-04-12 23:23:00,33.8,25.7,29.73,WNW,293,7.0,12.0,72,0.00,,,0.00,meteohub,2013-04-13 04:23:00,
2013-04-12 23:28:00,33.6,25.9,29.73,West,270,10.0,12.0,73,0.00,,,0.00,meteohub,2013-04-13 04:28:00,
2013-04-12 23:33:00,33.6,25.9,29.73,West,270,11.0,12.0,73,0.00,,,0.00,meteohub,2013-04-13 04:33:00,
2013-04-12 23:39:00,33.6,25.9,29.73,West,270,8.0,17.0,73,0.00,,,0.00,meteohub,2013-04-13 04:39:00,
2013-04-12 23:44:00,33.6,25.9,29.73,NW,315,11.0,17.0,73,0.00,,,0.00,meteohub,2013-04-13 04:44:00,
2013-04-12 23:49:00,33.6,25.9,29.73,NW,315,14.0,17.0,73,0.00,,,0.00,meteohub,2013-04-13 04:49:00,
2013-04-12 23:54:00,33.6,25.5,29.73,SW,225,12.0,15.0,72,0.00,,,0.00,meteohub,2013-04-13 04:54:00,
2013-04-12 23:59:00,33.6,25.5,29.73,West,270,7.0,16.0,72,0.00,,,0.00,meteohub,2013-04-13 04:59:00,